Here is the Quick Look data you requested

The Data originates at the National Weather Service, and is made available here by the UAlbany Department of Atmospheric and Environmental Sciences

Surface Observations

KADW 241156Z 32009KT 10SM CLR 21/11 A2983 RMK AO2A SLP106 T02060112 10217 20183
 52023 $=
KADW 241256Z 34015G20KT 10SM CLR 19/10 A2986 RMK AO2A SLP117 T01900097 $=
KADW 241356Z AUTO 33013KT 10SM FEW140 FEW160 SCT180 SCT210 18/09 A2988 RMK AO2
 SLP124 T01790087 $=
KADW 241456Z AUTO 32014KT 10SM FEW140 FEW170 SCT200 19/08 A2988 RMK AO2 SLP124
 T01880079 51015 $=
KADW 241556Z AUTO 31017KT 10SM FEW160 SCT180 SCT200 20/07 A2988 RMK AO2 SLP124
 T01950066 $=
KADW 241656Z AUTO 32009KT 10SM FEW160 FEW190 21/05 A2987 RMK AO2 SLP120
 T02050053 $=
KADW 241732Z AUTO 30010KT 10SM CLR 21/06 A2986 RMK AO2 WSHFT 27 SLP117 $=
KADW 241756Z AUTO 26012G16KT 10SM FEW200 22/05 A2986 RMK AO2 SLP117 T02210051
 10221 20179 58008 $=
KADW 241856Z AUTO 26008KT 10SM FEW170 SCT200 23/05 A2985 RMK AO2 SLP113
 T02260046 $=
KADW 241956Z AUTO 29008KT 10SM FEW170 FEW200 24/04 A2983 RMK AO2 SLP106
 T02370036 $=
KADW 242056Z AUTO 31008KT 10SM FEW220 23/03 A2983 RMK AO2 SLP106 T02320032
 55006 $=
KADW 242156Z AUTO 29006KT 10SM CLR 23/03 A2983 RMK AO2 SLP106 T02280028 $=
KADW 242256Z AUTO 30003KT 10SM CLR 22/03 A2984 RMK AO2 SLP110 T02200031 $=
KADW 242356Z AUTO 00000KT 10SM CLR 19/07 A2985 RMK AO2 SLP113 T01940065 10237
 20194 53004 $=
KADW 250056Z AUTO 04004KT 10SM CLR 16/07 A2986 RMK AO2 SLP117 T01600072 $=
KADW 250156Z AUTO 00000KT 10SM FEW100 14/09 A2988 RMK AO2 VIS 2 1/2 RWY19L
 SLP124 T01430087 $=
KADW 250156Z COR AUTO 00000KT 10SM FEW100 14/09 A2988 RMK AO2 SLP124 T01430087
 $ COR 0234=
KADW 250256Z AUTO 00000KT 10SM SCT100 SCT130 14/09 A2989 RMK AO2 SLP128
 T01410085 52015 $=
KADW 250356Z AUTO 00000KT 10SM OVC120 15/07 A2990 RMK AO2 SLP131 T01490065 $=
KADW 250456Z AUTO 05003KT 10SM OVC120 15/10 A2990 RMK AO2 SLP131 T01500100
 402370134 $=
KADW 250556Z AUTO 06003KT 10SM FEW100 OVC140 16/07 A2989 RMK AO2 SLP127
 T01550073 10192 20134 50000 $=
KADW 250656Z AUTO 04004KT 10SM OVC095 15/07 A2988 RMK AO2 SLP124 T01480066 $=
KADW 250756Z AUTO 05004KT 10SM FEW095 SCT110 15/05 A2988 RMK AO2 SLP124
 T01530046 $=
KADW 250856Z AUTO 07003KT 10SM BKN095 16/05 A2989 RMK AO2 SLP127 T01550048
 55001 $=
KADW 250956Z AUTO 06004KT 10SM BKN085 BKN100 15/06 A2990 RMK AO2 SLP131
 T01480056 $=
KADW 251056Z AUTO 05005KT 10SM SCT110 BKN140 15/06 A2991 RMK AO2 SLP134
 T01500055 $=
KADW 251156Z AUTO 05005KT 10SM FEW085 16/07 A2993 RMK AO2 SLP141 T01580065
 10162 20145 52015 $=
KADW 251256Z AUTO 05007KT 10SM FEW140 16/08 A2992 RMK AO2 SLP138 T01640079 $=
KADW 251348Z AUTO 06005KT 10SM -RA FEW200 17/08 A2992 RMK AO2 RAB48 SLP138 $=
KADW 251353Z AUTO 07004KT 10SM FEW200 17/08 A2992 RMK AO2 RAB48E53 SLP138 $=
KADW 251356Z AUTO 05004KT 10SM CLR 17/08 A2992 RMK AO2 RAB48E53 SLP138 P0000
 T01670081 $=
KADW 251353Z AUTO 07004KT 10SM FEW200 17/08 A2992 RMK AO2 RAB48E53 SLP138 $=
KADW 251356Z AUTO 05004KT 10SM CLR 17/08 A2992 RMK AO2 RAB48E53 SLP138 P0000
 T01670081 $=
KADW 251456Z AUTO 07005KT 10SM FEW130 FEW150 17/10 A2993 RMK AO2 SLP142 60000
 T01730095 55002 $=
KADW 251556Z AUTO 09005KT 10SM FEW120 FEW160 FEW190 SCT210 18/08 A2990 RMK AO2
 SLP131 T01810075 $=
KADW 251756Z AUTO 05003KT 10SM FEW050 SCT130 BKN160 BKN200 21/08 A2988 RMK AO2
 SLP124 60000 T02080081 10208 20158 55014 $=